Time;durP1;ratioP1;P1;durP2;ratioP2;P2;SDS_P1;SDS_P2;PMS_P1;PMS_P2;Temp;Humidity;BMP_temperature;BMP_pressure;BME280_temperature;BME280_humidity;BME280_pressure;Samples;Min_cycle;Max_cycle;Signal;HPM_P1;HPM_P2
2022/02/15 00:00:31;;;;;;;0.57;0.47;;;;;;;;;;4971126;28;20082;-66
2022/02/15 00:02:58;;;;;;;0.90;0.38;;;;;;;;;;4986667;28;20101;-66
2022/02/15 00:05:24;;;;;;;0.40;0.40;;;;;;;;;;4971211;28;20087;-66
2022/02/15 00:07:51;;;;;;;0.68;0.40;;;;;;;;;;4986881;28;20055;-66
2022/02/15 00:10:17;;;;;;;0.70;0.70;;;;;;;;;;4972199;28;20128;-66
2022/02/15 00:12:44;;;;;;;1.63;0.77;;;;;;;;;;4954976;28;20107;-66
2022/02/15 00:15:12;;;;;;;0.45;0.43;;;;;;;;;;4972921;28;20058;-66
2022/02/15 00:17:40;;;;;;;0.90;0.52;;;;;;;;;;4975616;28;20059;-66
2022/02/15 00:20:08;;;;;;;0.65;0.50;;;;;;;;;;4990911;28;20107;-66
2022/02/15 00:22:35;;;;;;;0.80;0.50;;;;;;;;;;4958397;28;20058;-66
2022/02/15 00:25:02;;;;;;;0.75;0.40;;;;;;;;;;4987388;28;20059;-67
2022/02/15 00:27:28;;;;;;;0.40;0.40;;;;;;;;;;4990575;28;20051;-66
2022/02/15 00:29:55;;;;;;;0.60;0.60;;;;;;;;;;4975927;28;20113;-66
2022/02/15 00:32:21;;;;;;;1.17;0.50;;;;;;;;;;4975054;28;20110;-67
2022/02/15 00:34:50;;;;;;;0.45;0.40;;;;;;;;;;4975587;28;20062;-67
2022/02/15 00:37:16;;;;;;;0.52;0.40;;;;;;;;;;4974090;28;20469;-66
2022/02/15 00:39:43;;;;;;;0.70;0.60;;;;;;;;;;4974232;28;20109;-66
2022/02/15 00:42:10;;;;;;;2.17;0.50;;;;;;;;;;4974151;28;20121;-67
2022/02/15 00:44:36;;;;;;;0.60;0.60;;;;;;;;;;4975192;28;20106;-66
2022/02/15 00:47:03;;;;;;;0.60;0.50;;;;;;;;;;4974160;28;20090;-65
2022/02/15 00:49:30;;;;;;;1.13;0.70;;;;;;;;;;4975315;28;20117;-66
2022/02/15 00:51:56;;;;;;;0.60;0.60;;;;;;;;;;4974119;28;20055;-66
2022/02/15 00:54:23;;;;;;;0.47;0.47;;;;;;;;;;4973879;28;20097;-66
2022/02/15 00:56:50;;;;;;;1.63;0.75;;;;;;;;;;4975155;28;20105;-66
2022/02/15 00:59:16;;;;;;;0.82;0.50;;;;;;;;;;4974996;28;20167;-67
2022/02/15 01:01:43;;;;;;;1.45;0.70;;;;;;;;;;4974770;28;20580;-66
2022/02/15 01:04:09;;;;;;;1.60;0.70;;;;;;;;;;4974765;28;20457;-66
2022/02/15 01:06:36;;;;;;;1.60;0.70;;;;;;;;;;4975899;28;20051;-67
2022/02/15 01:09:03;;;;;;;1.33;1.00;;;;;;;;;;4975977;28;20050;-67
2022/02/15 01:11:30;;;;;;;0.55;0.52;;;;;;;;;;4974804;28;20572;-67
2022/02/15 01:13:56;;;;;;;0.80;0.80;;;;;;;;;;4991017;28;20471;-66
2022/02/15 01:16:23;;;;;;;1.45;0.90;;;;;;;;;;4975869;28;20050;-67
2022/02/15 01:18:49;;;;;;;0.80;0.80;;;;;;;;;;4974759;28;20050;-67
2022/02/15 01:21:16;;;;;;;0.98;0.70;;;;;;;;;;4974763;28;20498;-66
2022/02/15 01:23:43;;;;;;;1.00;0.70;;;;;;;;;;4973910;28;20117;-67
2022/02/15 01:26:09;;;;;;;1.35;1.25;;;;;;;;;;4974501;28;20465;-66
2022/02/15 01:28:36;;;;;;;1.02;0.95;;;;;;;;;;4973425;28;20101;-65
2022/02/15 01:31:03;;;;;;;1.33;1.10;;;;;;;;;;4974546;28;20113;-67
2022/02/15 01:33:30;;;;;;;5.25;1.33;;;;;;;;;;4974209;28;20039;-66
2022/02/15 01:35:57;;;;;;;1.98;1.17;;;;;;;;;;4973503;28;20106;-66
2022/02/15 01:38:24;;;;;;;1.92;1.17;;;;;;;;;;4974373;28;20054;-66
2022/02/15 01:40:51;;;;;;;2.63;1.13;;;;;;;;;;4974634;28;20098;-66
2022/02/15 01:43:17;;;;;;;2.58;1.17;;;;;;;;;;4974125;28;20043;-67
2022/02/15 01:45:45;;;;;;;2.15;1.10;;;;;;;;;;4985331;28;20138;-66
2022/02/15 01:48:12;;;;;;;1.55;1.23;;;;;;;;;;4970892;28;20101;-66
2022/02/15 01:50:39;;;;;;;1.48;1.08;;;;;;;;;;4974233;28;20054;-67
2022/02/15 01:53:05;;;;;;;3.40;1.50;;;;;;;;;;4973950;28;20078;-67
2022/02/15 01:55:32;;;;;;;2.28;1.20;;;;;;;;;;4974658;28;20466;-66
2022/02/15 01:57:58;;;;;;;2.28;1.17;;;;;;;;;;4974643;28;20498;-67
2022/02/15 02:00:25;;;;;;;2.30;1.10;;;;;;;;;;4973208;28;20122;-67
2022/02/15 02:02:52;;;;;;;1.75;1.20;;;;;;;;;;4974179;28;20103;-67
2022/02/15 02:08:03;;;;;;;1.92;1.23;;;;;;;;;;4973883;28;20051;-66
2022/02/15 02:10:30;;;;;;;2.92;1.30;;;;;;;;;;4972638;28;20117;-66
2022/02/15 02:12:57;;;;;;;3.25;1.10;;;;;;;;;;4973601;28;20055;-66
2022/02/15 02:15:25;;;;;;;2.58;1.10;;;;;;;;;;4973481;28;20478;-66
2022/02/15 02:17:52;;;;;;;1.17;1.08;;;;;;;;;;4972539;28;20051;-66
2022/02/15 02:20:19;;;;;;;2.75;1.23;;;;;;;;;;4972348;28;20050;-66
2022/02/15 02:22:46;;;;;;;2.65;1.20;;;;;;;;;;4972163;28;20525;-67
2022/02/15 02:25:15;;;;;;;1.65;1.23;;;;;;;;;;4988137;28;20502;-66
2022/02/15 02:27:42;;;;;;;2.33;1.40;;;;;;;;;;4973432;28;20106;-66
2022/02/15 02:30:09;;;;;;;2.90;1.60;;;;;;;;;;4973666;28;20054;-66
2022/02/15 02:32:35;;;;;;;2.92;1.60;;;;;;;;;;4987997;28;20109;-66
2022/02/15 02:35:05;;;;;;;2.03;1.08;;;;;;;;;;4972336;28;20539;-66
2022/02/15 02:37:32;;;;;;;6.95;2.42;;;;;;;;;;4956063;28;20051;-66
2022/02/15 02:40:00;;;;;;;3.08;1.40;;;;;;;;;;4987967;28;20051;-67
2022/02/15 02:42:27;;;;;;;3.25;1.60;;;;;;;;;;4971942;28;20050;-66
2022/02/15 02:44:56;;;;;;;2.08;1.23;;;;;;;;;;4973118;28;20556;-66
2022/02/15 02:47:23;;;;;;;6.30;1.50;;;;;;;;;;4971943;28;20125;-66
2022/02/15 02:49:49;;;;;;;3.55;1.65;;;;;;;;;;4972373;28;20050;-66
2022/02/15 02:52:16;;;;;;;3.90;1.40;;;;;;;;;;4973660;28;20058;-66
2022/02/15 02:54:42;;;;;;;1.75;1.05;;;;;;;;;;4974053;28;20050;-67
2022/02/15 02:57:12;;;;;;;2.35;1.23;;;;;;;;;;4973797;28;20113;-67
2022/02/15 02:59:40;;;;;;;1.92;1.05;;;;;;;;;;4973707;28;20109;-67
2022/02/15 03:02:07;;;;;;;1.90;1.20;;;;;;;;;;4972622;28;20094;-67
2022/02/15 03:04:35;;;;;;;1.55;1.20;;;;;;;;;;5010888;23;20069;-68
2022/02/15 03:07:02;;;;;;;2.35;0.93;;;;;;;;;;4973063;28;20050;-68
2022/02/15 03:09:29;;;;;;;1.10;1.00;;;;;;;;;;4972886;28;20114;-67
2022/02/15 03:11:56;;;;;;;2.35;1.10;;;;;;;;;;4972942;28;20077;-68
2022/02/15 03:14:23;;;;;;;1.20;0.93;;;;;;;;;;4972250;28;20548;-67
2022/02/15 03:16:50;;;;;;;4.03;1.52;;;;;;;;;;4973107;28;20121;-67
2022/02/15 03:19:17;;;;;;;2.42;1.05;;;;;;;;;;4972539;28;20050;-67
2022/02/15 03:21:43;;;;;;;2.75;1.13;;;;;;;;;;4972896;28;20493;-67
2022/02/15 03:24:10;;;;;;;5.03;1.98;;;;;;;;;;4972640;28;20051;-67
2022/02/15 03:26:37;;;;;;;3.33;1.23;;;;;;;;;;4972828;28;20105;-68
2022/02/15 03:29:04;;;;;;;2.38;1.00;;;;;;;;;;4972671;28;20105;-67
2022/02/15 03:31:31;;;;;;;1.77;1.33;;;;;;;;;;4972791;28;20050;-68
2022/02/15 03:33:58;;;;;;;2.22;1.65;;;;;;;;;;4972408;28;20051;-68
2022/02/15 03:36:25;;;;;;;3.50;1.30;;;;;;;;;;4972549;28;20117;-67
2022/02/15 03:38:51;;;;;;;2.63;1.45;;;;;;;;;;4972384;28;20050;-67
2022/02/15 03:44:03;;;;;;;4.65;1.00;;;;;;;;;;4972207;28;20047;-68
2022/02/15 03:46:30;;;;;;;3.03;1.23;;;;;;;;;;4972469;28;20105;-68
2022/02/15 03:48:56;;;;;;;2.90;1.10;;;;;;;;;;4972802;28;20047;-67
2022/02/15 03:51:23;;;;;;;2.20;0.95;;;;;;;;;;4975035;28;20050;-67
2022/02/15 03:53:50;;;;;;;2.70;1.90;;;;;;;;;;4976188;28;20109;-67
2022/02/15 03:56:17;;;;;;;4.88;1.60;;;;;;;;;;4976363;28;20047;-67
2022/02/15 03:58:46;;;;;;;5.15;1.50;;;;;;;;;;4976328;28;20054;-68
2022/02/15 04:01:13;;;;;;;4.13;1.38;;;;;;;;;;4976353;28;20078;-68
2022/02/15 04:03:40;;;;;;;3.08;1.38;;;;;;;;;;4975814;28;20085;-67
2022/02/15 04:06:06;;;;;;;1.88;1.10;;;;;;;;;;4976284;28;20485;-68
2022/02/15 04:08:33;;;;;;;3.35;1.23;;;;;;;;;;4975869;28;20059;-67
2022/02/15 04:10:59;;;;;;;1.65;1.10;;;;;;;;;;4976358;28;20097;-67
2022/02/15 04:13:26;;;;;;;2.78;1.30;;;;;;;;;;4975778;28;20046;-67
2022/02/15 04:15:52;;;;;;;3.42;1.35;;;;;;;;;;4976106;28;20051;-68
2022/02/15 04:18:20;;;;;;;2.63;1.42;;;;;;;;;;4975632;28;20078;-67
2022/02/15 04:20:46;;;;;;;2.58;1.30;;;;;;;;;;4975863;28;20097;-67
2022/02/15 04:23:13;;;;;;;5.95;1.98;;;;;;;;;;4975667;28;20050;-67
2022/02/15 04:25:39;;;;;;;4.63;1.42;;;;;;;;;;4975858;28;20043;-67
2022/02/15 04:28:06;;;;;;;3.75;1.33;;;;;;;;;;4975689;28;20051;-67
2022/02/15 04:30:33;;;;;;;1.90;0.93;;;;;;;;;;4975812;28;20118;-68
2022/02/15 04:32:59;;;;;;;2.22;1.02;;;;;;;;;;4975611;28;20093;-68
2022/02/15 04:35:26;;;;;;;2.65;1.30;;;;;;;;;;4975453;28;20094;-68
2022/02/15 04:37:52;;;;;;;5.93;1.10;;;;;;;;;;4975818;28;20101;-68
2022/02/15 04:40:19;;;;;;;2.45;1.30;;;;;;;;;;4975226;28;20090;-67
2022/02/15 04:42:47;;;;;;;3.38;1.30;;;;;;;;;;4975473;28;20047;-68
2022/02/15 04:45:13;;;;;;;2.13;1.08;;;;;;;;;;4975509;28;20042;-67
2022/02/15 04:47:41;;;;;;;3.33;1.60;;;;;;;;;;4975413;28;20046;-68
2022/02/15 04:50:08;;;;;;;2.60;1.15;;;;;;;;;;4975537;28;20050;-68
2022/02/15 04:52:35;;;;;;;2.55;1.02;;;;;;;;;;4976243;28;20395;-67
2022/02/15 04:55:02;;;;;;;1.58;0.75;;;;;;;;;;4975432;28;20402;-68
2022/02/15 04:57:28;;;;;;;1.77;0.95;;;;;;;;;;4975248;28;20042;-67
2022/02/15 04:59:55;;;;;;;3.50;1.48;;;;;;;;;;4975692;28;20047;-67
2022/02/15 05:02:22;;;;;;;1.92;0.90;;;;;;;;;;4974652;28;20050;-68
2022/02/15 05:04:48;;;;;;;4.07;1.08;;;;;;;;;;4973801;28;20066;-67
2022/02/15 05:07:16;;;;;;;2.42;1.40;;;;;;;;;;4975057;28;20124;-67
2022/02/15 05:09:43;;;;;;;1.13;0.98;;;;;;;;;;4974918;28;20054;-68
2022/02/15 05:12:11;;;;;;;2.78;1.17;;;;;;;;;;4974879;28;20054;-67
2022/02/15 05:14:37;;;;;;;1.70;1.20;;;;;;;;;;4974758;28;20054;-68
2022/02/15 05:17:04;;;;;;;2.53;1.15;;;;;;;;;;4974885;28;20124;-67
2022/02/15 05:19:31;;;;;;;3.47;1.10;;;;;;;;;;4974904;28;20065;-68
2022/02/15 05:21:58;;;;;;;2.75;1.08;;;;;;;;;;4974383;28;20105;-67
2022/02/15 05:24:24;;;;;;;1.65;0.88;;;;;;;;;;4974727;28;20047;-67
2022/02/15 05:26:53;;;;;;;4.22;1.02;;;;;;;;;;4974792;28;20138;-68
2022/02/15 05:29:19;;;;;;;2.17;1.15;;;;;;;;;;4974868;28;20050;-68
2022/02/15 05:31:47;;;;;;;3.72;1.30;;;;;;;;;;4974736;28;20051;-68
2022/02/15 05:34:14;;;;;;;1.85;1.10;;;;;;;;;;4974516;28;20054;-68
2022/02/15 05:36:41;;;;;;;2.38;1.00;;;;;;;;;;4974730;28;20081;-67
2022/02/15 05:39:08;;;;;;;2.38;1.27;;;;;;;;;;4974711;28;20106;-68
2022/02/15 05:41:35;;;;;;;4.53;1.20;;;;;;;;;;4974551;28;20140;-67
2022/02/15 05:44:01;;;;;;;4.10;1.23;;;;;;;;;;4974164;28;20050;-67
2022/02/15 05:46:28;;;;;;;4.15;1.27;;;;;;;;;;4974475;28;20054;-67
2022/02/15 05:48:55;;;;;;;3.65;2.78;;;;;;;;;;4974265;28;20050;-67
2022/02/15 05:51:21;;;;;;;2.03;1.20;;;;;;;;;;4974571;28;20055;-67
2022/02/15 05:53:48;;;;;;;2.42;1.20;;;;;;;;;;4973907;28;20055;-67
2022/02/15 05:56:14;;;;;;;2.55;1.10;;;;;;;;;;4974167;28;20450;-67
2022/02/15 05:58:41;;;;;;;2.67;1.45;;;;;;;;;;4974389;28;20050;-67
2022/02/15 06:01:09;;;;;;;3.28;1.30;;;;;;;;;;4974193;28;20047;-67
2022/02/15 06:06:20;;;;;;;5.90;2.47;;;;;;;;;;4973995;28;20093;-67
2022/02/15 06:08:47;;;;;;;7.32;4.68;;;;;;;;;;4974320;28;20046;-67
2022/02/15 06:11:14;;;;;;;9.25;5.05;;;;;;;;;;4974227;28;20466;-67
2022/02/15 06:13:41;;;;;;;16.50;7.88;;;;;;;;;;4972905;28;20553;-68
2022/02/15 06:16:07;;;;;;;24.17;12.45;;;;;;;;;;4974169;28;20047;-68
2022/02/15 06:18:34;;;;;;;20.38;11.45;;;;;;;;;;4973790;28;20469;-68
2022/02/15 06:21:01;;;;;;;22.88;12.27;;;;;;;;;;4974129;28;20055;-67
2022/02/15 06:23:28;;;;;;;23.00;11.52;;;;;;;;;;4973576;28;20565;-67
2022/02/15 06:25:55;;;;;;;19.20;11.40;;;;;;;;;;4973920;28;20450;-68
2022/02/15 06:28:21;;;;;;;18.33;9.25;;;;;;;;;;4973705;28;20055;-67
2022/02/15 06:30:48;;;;;;;17.75;9.90;;;;;;;;;;4973685;28;20058;-67
2022/02/15 06:33:15;;;;;;;15.05;8.05;;;;;;;;;;4973301;28;20109;-67
2022/02/15 06:35:41;;;;;;;13.75;7.32;;;;;;;;;;4973734;28;20050;-67
2022/02/15 06:38:08;;;;;;;12.63;6.07;;;;;;;;;;4973692;28;20062;-67
2022/02/15 06:40:39;;;;;;;7.38;4.35;;;;;;;;;;4973897;28;20059;-67
2022/02/15 06:43:06;;;;;;;5.28;2.78;;;;;;;;;;4973273;28;20055;-67
2022/02/15 06:45:32;;;;;;;5.00;2.63;;;;;;;;;;4973309;28;20502;-67
2022/02/15 06:47:59;;;;;;;6.75;2.88;;;;;;;;;;4973583;28;20046;-67
2022/02/15 06:50:26;;;;;;;3.97;2.63;;;;;;;;;;4973556;28;20051;-67
2022/02/15 06:52:57;;;;;;;8.65;3.25;;;;;;;;;;4970539;28;20058;-67
2022/02/15 06:55:44;;;;;;;5.40;2.90;;;;;;;;;;4973218;28;20521;-69
2022/02/15 06:58:11;;;;;;;4.55;3.10;;;;;;;;;;4972978;28;20454;-67
2022/02/15 07:00:38;;;;;;;4.50;2.17;;;;;;;;;;4973437;28;20450;-67
2022/02/15 07:03:05;;;;;;;6.40;2.35;;;;;;;;;;4972944;28;20057;-68
2022/02/15 07:05:31;;;;;;;3.97;1.90;;;;;;;;;;4973049;28;20050;-69
2022/02/15 07:07:58;;;;;;;3.47;1.48;;;;;;;;;;4971460;28;20058;-69
2022/02/15 07:10:25;;;;;;;1.58;1.00;;;;;;;;;;4985834;28;20519;-69
2022/02/15 07:12:51;;;;;;;3.30;1.30;;;;;;;;;;4985790;28;20109;-69
2022/02/15 07:15:19;;;;;;;3.03;1.45;;;;;;;;;;4970845;28;20049;-68
2022/02/15 07:17:46;;;;;;;1.55;1.00;;;;;;;;;;4970896;28;20098;-69
2022/02/15 07:20:13;;;;;;;2.35;1.10;;;;;;;;;;4970849;28;20051;-69
2022/02/15 07:22:40;;;;;;;2.08;0.90;;;;;;;;;;4970725;28;20078;-69
2022/02/15 07:25:07;;;;;;;1.75;0.90;;;;;;;;;;4970554;28;20605;-69
2022/02/15 07:27:34;;;;;;;1.67;0.98;;;;;;;;;;4970636;28;20327;-68
2022/02/15 07:30:01;;;;;;;1.30;0.90;;;;;;;;;;4971023;28;20526;-69
2022/02/15 07:32:29;;;;;;;1.17;0.90;;;;;;;;;;4970622;28;20054;-68
2022/02/15 07:34:58;;;;;;;1.38;0.90;;;;;;;;;;4970143;28;20051;-69
2022/02/15 07:37:28;;;;;;;3.10;0.80;;;;;;;;;;4971541;28;20057;-69
2022/02/15 07:39:55;;;;;;;3.95;1.00;;;;;;;;;;4971913;28;20058;-69
2022/02/15 07:42:21;;;;;;;1.67;1.33;;;;;;;;;;4970740;28;20055;-69
2022/02/15 07:44:48;;;;;;;1.00;0.90;;;;;;;;;;4970433;28;20514;-69
2022/02/15 07:47:15;;;;;;;2.97;0.90;;;;;;;;;;4970230;28;20529;-69
2022/02/15 07:49:41;;;;;;;1.38;0.63;;;;;;;;;;4970597;28;20421;-69
2022/02/15 07:52:09;;;;;;;1.42;0.60;;;;;;;;;;4970004;28;20517;-68
2022/02/15 07:54:37;;;;;;;1.48;0.60;;;;;;;;;;4970370;28;20331;-69
2022/02/15 07:57:05;;;;;;;1.45;0.60;;;;;;;;;;4970619;28;20050;-69
2022/02/15 07:59:33;;;;;;;1.15;0.68;;;;;;;;;;4970039;28;20055;-68
2022/02/15 08:02:00;;;;;;;1.15;0.40;;;;;;;;;;4969679;28;20510;-69
2022/02/15 08:04:28;;;;;;;1.50;0.98;;;;;;;;;;4957434;28;20059;-68
2022/02/15 08:06:54;;;;;;;0.82;0.80;;;;;;;;;;4951194;29;20495;-69
2022/02/15 08:09:22;;;;;;;1.73;0.90;;;;;;;;;;4965987;28;20104;-69
2022/02/15 08:11:54;;;;;;;2.08;0.95;;;;;;;;;;4951400;29;20058;-70
2022/02/15 08:14:22;;;;;;;1.33;0.60;;;;;;;;;;4969135;28;20070;-70
2022/02/15 08:16:49;;;;;;;0.95;0.60;;;;;;;;;;4970693;28;20058;-70
2022/02/15 08:19:15;;;;;;;1.05;0.60;;;;;;;;;;4965175;28;20105;-71
2022/02/15 08:21:42;;;;;;;1.98;0.70;;;;;;;;;;4969543;28;20058;-72
2022/02/15 08:24:09;;;;;;;2.08;0.82;;;;;;;;;;4969829;28;20062;-71
2022/02/15 08:26:35;;;;;;;1.30;0.90;;;;;;;;;;4970407;28;20346;-69
2022/02/15 08:29:02;;;;;;;1.60;0.80;;;;;;;;;;4970516;28;20102;-71
2022/02/15 08:31:29;;;;;;;1.65;0.70;;;;;;;;;;4969689;28;20055;-69
2022/02/15 08:33:55;;;;;;;2.13;0.75;;;;;;;;;;4954866;28;20111;-68
2022/02/15 08:36:22;;;;;;;1.88;0.70;;;;;;;;;;4951543;28;20102;-70
2022/02/15 08:38:48;;;;;;;1.10;0.82;;;;;;;;;;4957169;29;20557;-69
2022/02/15 08:41:15;;;;;;;0.85;0.70;;;;;;;;;;4954413;29;20051;-69
2022/02/15 08:43:43;;;;;;;1.33;0.70;;;;;;;;;;4967042;28;20047;-70
2022/02/15 08:46:10;;;;;;;2.05;1.13;;;;;;;;;;4975136;28;20046;-71
2022/02/15 08:48:36;;;;;;;1.02;0.70;;;;;;;;;;4976156;28;20059;-68
2022/02/15 08:51:03;;;;;;;2.13;0.85;;;;;;;;;;4976973;28;20415;-72
2022/02/15 08:53:30;;;;;;;2.05;0.90;;;;;;;;;;4961239;28;20113;-71
2022/02/15 08:55:56;;;;;;;1.60;0.98;;;;;;;;;;4980111;28;20057;-74
2022/02/15 08:58:23;;;;;;;2.22;1.23;;;;;;;;;;4963410;28;20501;-71
2022/02/15 09:00:50;;;;;;;1.80;0.98;;;;;;;;;;4961249;28;20546;-72
2022/02/15 09:03:17;;;;;;;1.77;1.30;;;;;;;;;;4965524;28;20092;-66
2022/02/15 09:05:45;;;;;;;2.50;1.00;;;;;;;;;;4960565;28;20047;-67
2022/02/15 09:08:11;;;;;;;1.08;0.98;;;;;;;;;;4962464;28;20058;-67
2022/02/15 09:10:38;;;;;;;1.00;0.93;;;;;;;;;;4961009;28;20055;-66
2022/02/15 09:13:05;;;;;;;1.60;1.10;;;;;;;;;;4969816;28;20054;-66
2022/02/15 09:15:32;;;;;;;2.55;1.50;;;;;;;;;;4962430;28;20055;-67
2022/02/15 09:17:59;;;;;;;3.97;1.67;;;;;;;;;;4960285;28;20055;-67
2022/02/15 09:20:26;;;;;;;3.50;1.45;;;;;;;;;;4960907;28;20054;-67
2022/02/15 09:22:52;;;;;;;3.47;2.00;;;;;;;;;;4964907;28;20054;-68
2022/02/15 09:25:19;;;;;;;1.63;1.30;;;;;;;;;;4966122;28;20047;-68
2022/02/15 09:27:46;;;;;;;2.67;1.67;;;;;;;;;;4966127;28;20106;-68
2022/02/15 09:30:12;;;;;;;1.48;1.13;;;;;;;;;;4968973;28;20466;-67
2022/02/15 09:32:39;;;;;;;2.95;1.60;;;;;;;;;;4963957;28;20525;-68
2022/02/15 09:35:06;;;;;;;4.60;1.60;;;;;;;;;;4966144;28;20505;-68
2022/02/15 09:37:33;;;;;;;2.72;1.55;;;;;;;;;;4963926;28;20073;-68
2022/02/15 09:40:03;;;;;;;1.73;1.38;;;;;;;;;;4964566;28;20136;-68
2022/02/15 09:42:30;;;;;;;2.70;1.50;;;;;;;;;;4966007;28;20510;-68
2022/02/15 09:44:58;;;;;;;3.10;2.00;;;;;;;;;;4968223;28;20054;-68
2022/02/15 09:47:26;;;;;;;4.38;2.38;;;;;;;;;;4965842;28;20050;-68
2022/02/15 09:49:53;;;;;;;3.15;2.08;;;;;;;;;;4968352;28;20509;-67
2022/02/15 09:52:23;;;;;;;4.72;1.80;;;;;;;;;;4965770;28;20043;-69
2022/02/15 09:54:55;;;;;;;5.45;2.08;;;;;;;;;;4967417;28;20047;-69
2022/02/15 09:57:23;;;;;;;4.57;2.70;;;;;;;;;;4968659;28;20050;-69
2022/02/15 09:59:50;;;;;;;5.57;2.00;;;;;;;;;;4965974;28;20055;-67
2022/02/15 10:02:24;;;;;;;2.72;1.70;;;;;;;;;;4967258;28;20075;-68
2022/02/15 10:04:52;;;;;;;3.33;1.90;;;;;;;;;;4965436;28;20149;-66
2022/02/15 10:07:19;;;;;;;4.03;1.90;;;;;;;;;;4964345;28;20098;-67
2022/02/15 10:09:52;;;;;;;2.40;1.67;;;;;;;;;;4964245;28;20050;-67
2022/02/15 10:12:19;;;;;;;1.95;1.75;;;;;;;;;;4959096;28;20054;-67
2022/02/15 10:14:50;;;;;;;4.82;2.22;;;;;;;;;;4962116;28;20179;-67
2022/02/15 10:17:17;;;;;;;3.95;1.45;;;;;;;;;;4961687;28;20113;-66
2022/02/15 10:19:47;;;;;;;4.63;1.67;;;;;;;;;;4964973;28;20399;-69
2022/02/15 10:22:18;;;;;;;1.83;1.33;;;;;;;;;;4959097;28;20128;-72
2022/02/15 10:24:53;;;;;;;3.72;1.80;;;;;;;;;;4965489;28;20106;-79
2022/02/15 10:27:28;;;;;;;2.00;1.50;;;;;;;;;;4959656;28;20054;-74
2022/02/15 10:29:55;;;;;;;4.93;1.50;;;;;;;;;;4963327;28;20051;-69
2022/02/15 10:32:22;;;;;;;3.30;1.60;;;;;;;;;;4961065;28;20091;-72
2022/02/15 10:34:56;;;;;;;2.72;1.58;;;;;;;;;;4961607;28;20054;-70
2022/02/15 10:37:32;;;;;;;4.97;2.00;;;;;;;;;;4960611;28;20046;-70
2022/02/15 10:40:05;;;;;;;2.08;1.50;;;;;;;;;;4961869;28;20051;-69
2022/02/15 10:42:32;;;;;;;2.45;1.50;;;;;;;;;;4959863;28;20308;-70
2022/02/15 10:45:08;;;;;;;5.80;1.33;;;;;;;;;;4959987;28;20057;-68
2022/02/15 10:47:37;;;;;;;1.80;1.38;;;;;;;;;;4960358;28;20414;-67
2022/02/15 10:50:09;;;;;;;4.30;1.38;;;;;;;;;;4962788;28;20054;-66
2022/02/15 10:52:36;;;;;;;1.42;0.93;;;;;;;;;;4961631;28;20051;-66
2022/02/15 10:55:03;;;;;;;6.68;1.20;;;;;;;;;;4960607;28;20059;-68
2022/02/15 10:57:30;;;;;;;3.05;1.17;;;;;;;;;;4960777;28;20054;-66
2022/02/15 10:59:57;;;;;;;3.00;1.50;;;;;;;;;;4959364;28;20059;-67
2022/02/15 11:02:44;;;;;;;2.40;1.02;;;;;;;;;;4959711;28;20754;-69
2022/02/15 11:05:11;;;;;;;5.82;1.65;;;;;;;;;;4957154;28;20421;-71
2022/02/15 11:07:39;;;;;;;2.25;1.33;;;;;;;;;;4958744;28;20082;-68
2022/02/15 11:10:27;;;;;;;3.33;1.08;;;;;;;;;;4959666;28;20537;-67
2022/02/15 11:12:58;;;;;;;2.55;0.90;;;;;;;;;;4961707;28;20038;-67
2022/02/15 11:15:29;;;;;;;2.10;1.15;;;;;;;;;;4974960;28;20058;-70
2022/02/15 11:18:00;;;;;;;4.18;1.20;;;;;;;;;;4957702;28;20047;-75
2022/02/15 11:20:29;;;;;;;5.75;2.10;;;;;;;;;;4963102;28;20078;-71
2022/02/15 11:22:58;;;;;;;2.30;1.30;;;;;;;;;;4957458;28;20047;-72
2022/02/15 11:25:44;;;;;;;2.22;1.63;;;;;;;;;;4964181;28;20074;-72
2022/02/15 11:28:16;;;;;;;3.92;1.85;;;;;;;;;;4961044;28;20387;-68
2022/02/15 11:30:51;;;;;;;6.10;1.80;;;;;;;;;;4959097;28;20051;-69
2022/02/15 11:33:21;;;;;;;5.07;1.70;;;;;;;;;;4957719;28;20066;-67
2022/02/15 11:35:56;;;;;;;3.17;1.25;;;;;;;;;;4959894;28;20078;-71
2022/02/15 11:38:23;;;;;;;1.38;1.15;;;;;;;;;;4964261;28;20121;-69
2022/02/15 11:41:12;;;;;;;1.50;1.30;;;;;;;;;;4959594;28;20055;-66
2022/02/15 11:43:39;;;;;;;1.40;1.30;;;;;;;;;;4961574;28;20057;-70
2022/02/15 11:46:05;;;;;;;5.47;1.83;;;;;;;;;;4958025;28;20110;-70
2022/02/15 11:48:41;;;;;;;1.73;1.25;;;;;;;;;;4968630;28;20058;-68
2022/02/15 11:51:18;;;;;;;2.80;1.10;;;;;;;;;;4959897;28;20498;-72
2022/02/15 11:53:54;;;;;;;2.90;1.10;;;;;;;;;;4960018;28;20063;-67
2022/02/15 11:56:20;;;;;;;1.65;1.10;;;;;;;;;;4963281;28;20118;-73
2022/02/15 11:58:49;;;;;;;2.85;1.25;;;;;;;;;;4957446;28;20051;-72
2022/02/15 12:01:28;;;;;;;1.52;1.30;;;;;;;;;;4968465;28;20051;-75
2022/02/15 12:04:00;;;;;;;1.77;1.17;;;;;;;;;;4974697;28;20047;-73
2022/02/15 12:06:39;;;;;;;3.75;1.17;;;;;;;;;;4958150;28;20047;-69
2022/02/15 12:09:07;;;;;;;2.75;1.30;;;;;;;;;;4961439;28;20066;-70
2022/02/15 12:11:35;;;;;;;2.45;1.98;;;;;;;;;;4964138;28;20117;-68
2022/02/15 12:14:09;;;;;;;2.83;1.40;;;;;;;;;;4964062;28;20106;-66
2022/02/15 12:17:00;;;;;;;2.72;1.60;;;;;;;;;;4967425;28;20051;-73
2022/02/15 12:19:35;;;;;;;2.78;1.90;;;;;;;;;;4962165;28;20047;-72
2022/02/15 12:22:10;;;;;;;2.08;1.45;;;;;;;;;;4966410;28;20054;-71
2022/02/15 12:24:36;;;;;;;2.03;1.33;;;;;;;;;;4967506;28;20059;-72
2022/02/15 12:27:06;;;;;;;4.57;1.92;;;;;;;;;;4962876;28;20047;-74
2022/02/15 12:29:32;;;;;;;5.00;1.63;;;;;;;;;;4961298;28;20051;-71
2022/02/15 12:32:04;;;;;;;2.08;1.50;;;;;;;;;;4965566;28;20047;-69
2022/02/15 12:34:31;;;;;;;1.95;1.40;;;;;;;;;;4963953;28;20051;-70
2022/02/15 12:36:58;;;;;;;1.30;1.10;;;;;;;;;;4966497;28;20101;-69
2022/02/15 12:39:36;;;;;;;1.98;1.13;;;;;;;;;;4970205;28;20059;-69
2022/02/15 12:42:13;;;;;;;2.88;1.40;;;;;;;;;;4961813;28;20055;-69
2022/02/15 12:44:41;;;;;;;2.70;1.05;;;;;;;;;;4965860;28;20097;-69
2022/02/15 12:47:08;;;;;;;1.33;0.90;;;;;;;;;;4961261;28;20107;-69
2022/02/15 12:49:35;;;;;;;1.52;1.10;;;;;;;;;;4963934;28;20054;-70
2022/02/15 12:52:01;;;;;;;2.08;1.10;;;;;;;;;;4962895;28;20110;-69
2022/02/15 12:54:28;;;;;;;2.53;1.30;;;;;;;;;;4961077;28;20047;-69
2022/02/15 12:56:58;;;;;;;2.67;1.50;;;;;;;;;;4962382;28;20050;-69
2022/02/15 12:59:25;;;;;;;5.90;1.98;;;;;;;;;;4962849;28;20465;-69
2022/02/15 13:01:59;;;;;;;2.78;1.30;;;;;;;;;;4961061;28;20105;-69
2022/02/15 13:04:26;;;;;;;4.80;1.98;;;;;;;;;;4960209;28;20055;-70
2022/02/15 13:06:53;;;;;;;1.90;1.17;;;;;;;;;;4960807;28;20102;-69
2022/02/15 13:09:25;;;;;;;3.60;1.25;;;;;;;;;;4979738;28;20054;-70
2022/02/15 13:12:00;;;;;;;1.77;1.60;;;;;;;;;;4961598;28;20050;-69
2022/02/15 13:14:28;;;;;;;2.72;1.13;;;;;;;;;;4962013;28;20447;-70
2022/02/15 13:16:57;;;;;;;2.38;1.13;;;;;;;;;;4961142;28;20094;-69
2022/02/15 13:19:34;;;;;;;1.95;1.20;;;;;;;;;;4964769;28;20502;-69
2022/02/15 13:22:09;;;;;;;2.17;1.40;;;;;;;;;;4961675;28;20051;-70
2022/02/15 13:24:36;;;;;;;5.60;1.63;;;;;;;;;;4963539;28;20063;-70
2022/02/15 13:27:03;;;;;;;2.15;1.95;;;;;;;;;;4962091;28;20619;-69
2022/02/15 13:29:34;;;;;;;3.47;2.00;;;;;;;;;;4960524;28;20176;-70
2022/02/15 13:32:03;;;;;;;1.73;1.33;;;;;;;;;;4964449;28;20078;-69
2022/02/15 13:34:29;;;;;;;1.88;1.40;;;;;;;;;;4960343;28;20123;-70
2022/02/15 13:37:01;;;;;;;2.25;1.10;;;;;;;;;;4961924;28;20047;-70
2022/02/15 13:39:27;;;;;;;1.80;1.50;;;;;;;;;;4959788;28;20050;-72
2022/02/15 13:41:55;;;;;;;2.00;1.42;;;;;;;;;;4962924;28;20580;-76
2022/02/15 13:44:23;;;;;;;2.50;1.40;;;;;;;;;;4959503;28;20390;-70
2022/02/15 13:46:51;;;;;;;2.63;1.50;;;;;;;;;;4962790;28;20047;-74
2022/02/15 13:49:17;;;;;;;2.05;1.02;;;;;;;;;;4960519;28;20441;-71
2022/02/15 13:51:45;;;;;;;2.33;1.33;;;;;;;;;;4981322;28;20525;-76
2022/02/15 13:54:12;;;;;;;2.22;1.20;;;;;;;;;;4964830;28;20082;-72
2022/02/15 13:56:39;;;;;;;2.42;0.90;;;;;;;;;;4962633;28;20062;-69
2022/02/15 13:59:07;;;;;;;3.75;1.15;;;;;;;;;;4967390;28;20047;-69
2022/02/15 14:01:39;;;;;;;4.93;0.98;;;;;;;;;;4959778;28;20124;-68
2022/02/15 14:04:06;;;;;;;1.55;1.10;;;;;;;;;;4962591;28;20356;-68
2022/02/15 14:06:34;;;;;;;1.45;1.30;;;;;;;;;;4959497;28;20134;-69
2022/02/15 14:09:00;;;;;;;3.22;1.42;;;;;;;;;;4965218;28;20565;-71
2022/02/15 14:11:27;;;;;;;7.25;1.38;;;;;;;;;;4960310;28;20473;-69
2022/02/15 14:13:54;;;;;;;4.13;1.88;;;;;;;;;;4959925;28;20075;-69
2022/02/15 14:16:23;;;;;;;2.25;1.30;;;;;;;;;;4960713;28;20418;-73
2022/02/15 14:18:49;;;;;;;3.00;1.05;;;;;;;;;;4958417;28;20414;-71
2022/02/15 14:21:16;;;;;;;2.13;1.30;;;;;;;;;;4964524;28;20062;-71
2022/02/15 14:23:44;;;;;;;2.78;1.50;;;;;;;;;;4973377;28;20055;-71
2022/02/15 14:26:13;;;;;;;3.50;1.75;;;;;;;;;;4962725;28;20490;-73
2022/02/15 14:28:41;;;;;;;2.92;1.70;;;;;;;;;;4964618;28;20052;-72
2022/02/15 14:31:09;;;;;;;5.82;2.00;;;;;;;;;;4962119;28;20482;-74
2022/02/15 14:33:43;;;;;;;3.65;2.10;;;;;;;;;;4977663;28;20152;-74
2022/02/15 14:36:11;;;;;;;3.30;2.35;;;;;;;;;;4961566;28;20078;-74
2022/02/15 14:38:38;;;;;;;2.03;1.27;;;;;;;;;;4962258;28;20148;-73
2022/02/15 14:41:05;;;;;;;1.70;1.27;;;;;;;;;;4959458;28;20055;-75
2022/02/15 14:43:32;;;;;;;4.15;1.60;;;;;;;;;;4963127;28;20047;-71
2022/02/15 14:45:59;;;;;;;2.10;1.17;;;;;;;;;;4960194;28;20046;-71
2022/02/15 14:48:26;;;;;;;2.08;0.95;;;;;;;;;;4961466;28;20054;-70
2022/02/15 14:50:57;;;;;;;2.35;1.25;;;;;;;;;;4966543;28;20097;-72
2022/02/15 14:53:25;;;;;;;4.95;1.40;;;;;;;;;;4960125;28;20054;-67
2022/02/15 14:55:52;;;;;;;1.45;0.93;;;;;;;;;;4959779;28;20101;-73